This is the latest recevied weather packets stored in our database for station/object 9M2ZEE-0. If no packets are shown the sender has not sent any weather packets the latest 10 day(s).
| Time | Temp. | Humidity | Pressure | Rain* | Wind** | Luminosity | Snow |
|---|---|---|---|---|---|---|---|
| 1787647713 | 35° C | 99% | 1007 hPa | - | - | 0 W/m² | - |
| 1787645889 | 37.78° C | 86% | 1008 hPa | - | - | 0 W/m² | - |
| 1787644066 | 35.56° C | 96% | 1008 hPa | - | - | 0 W/m² | - |
| 1787642242 | 36.11° C | 93% | 1008 hPa | - | - | 0 W/m² | - |
| 1787640419 | 37.22° C | 77% | 1009 hPa | - | - | 0 W/m² | - |
| 1787638596 | 35.56° C | 87% | 1009 hPa | - | - | 0 W/m² | - |
| 1787636772 | 37.78° C | 81% | 1010 hPa | - | - | 0 W/m² | - |
| 1787634949 | 36.11° C | 90% | 1011 hPa | - | - | 0 W/m² | - |
| 1787633127 | 35.56° C | 96% | 1011 hPa | - | - | 0 W/m² | - |
| 1787631302 | 35° C | 99% | 1011 hPa | - | - | 0 W/m² | - |
| 1787629476 | 34.44° C | 99% | 1012 hPa | - | - | 0 W/m² | - |
| 1787627652 | 33.33° C | 99% | 1012 hPa | - | - | 0 W/m² | - |
| 1787626139 | 32.78° C | 99% | 1012 hPa | - | - | 0 W/m² | - |
| 1787624316 | 32.22° C | 99% | 1012 hPa | - | - | 0 W/m² | - |
| 1787622493 | 31.67° C | 99% | 1012 hPa | - | - | 0 W/m² | - |
| 1787620778 | 30.56° C | 99% | 1012 hPa | - | - | 0 W/m² | - |
| 1787618956 | 28.89° C | 99% | 1012 hPa | - | - | 0 W/m² | - |
| 1787617132 | 29.44° C | 99% | 1011 hPa | - | - | 0 W/m² | - |
| 1787615309 | 28.33° C | 99% | 1011 hPa | - | - | 0 W/m² | - |
| 1787613485 | 28.33° C | 99% | 1011 hPa | - | - | 0 W/m² | - |
| 1787611662 | 28.33° C | 99% | 1010 hPa | - | - | 0 W/m² | - |
| 1787609840 | 28.89° C | 99% | 1010 hPa | - | - | 0 W/m² | - |
| 1787608017 | 28.89° C | 99% | 1010 hPa | - | - | 0 W/m² | - |
| 1787606195 | 28.33° C | 99% | 1009 hPa | - | - | 0 W/m² | - |
| 1787604372 | 28.33° C | 99% | 1009 hPa | - | - | 0 W/m² | - |
* Rain since midnight (hover to see other rain measurements)
** Current wind speed in m/s (hover to see current wind gust speed)